Time;durP1;ratioP1;P1;durP2;ratioP2;P2;SDS_P1;SDS_P2;PMS_P1;PMS_P2;Temp;Humidity;BMP_temperature;BMP_pressure;BME280_temperature;BME280_humidity;BME280_pressure;Samples;Min_cycle;Max_cycle;Signal;HPM_P1;HPM_P2
2022/08/20 00:02:21;;;;;;;0.75;0.75;;;;;;;23.80;55.66;97201.00;4990510;28;20655;-74
2022/08/20 00:04:47;;;;;;;0.80;0.80;;;;;;;23.71;55.52;97198.44;4991484;28;20371;-74
2022/08/20 00:07:13;;;;;;;1.67;0.90;;;;;;;23.75;55.29;97194.81;5008199;28;20205;-74
2022/08/20 00:09:40;;;;;;;1.02;0.80;;;;;;;23.72;55.28;97194.69;4997662;28;20297;-74
2022/08/20 00:12:06;;;;;;;1.50;0.80;;;;;;;23.71;55.51;97182.50;5026586;28;20662;-74
2022/08/20 00:14:32;;;;;;;0.88;0.80;;;;;;;23.73;55.17;97186.38;4997127;28;20691;-74
2022/08/20 00:16:58;;;;;;;1.33;0.90;;;;;;;23.71;55.31;97193.13;4991223;28;20274;-74
2022/08/20 00:19:23;;;;;;;1.77;0.90;;;;;;;23.70;55.19;97187.03;5002883;28;20647;-74
2022/08/20 00:21:48;;;;;;;0.70;0.70;;;;;;;23.66;55.34;97186.13;5007885;28;20473;-74
2022/08/20 00:24:14;;;;;;;0.90;0.90;;;;;;;23.62;55.80;97195.88;5007939;28;20205;-73
2022/08/20 00:26:39;;;;;;;1.00;0.75;;;;;;;23.56;55.99;97191.88;5026153;28;20475;-74
2022/08/20 00:29:05;;;;;;;1.00;0.90;;;;;;;23.55;56.21;97190.34;5010045;27;20185;-74
2022/08/20 00:31:30;;;;;;;1.25;1.17;;;;;;;23.50;56.68;97193.19;5010961;27;20267;-74
2022/08/20 00:33:56;;;;;;;1.77;0.82;;;;;;;23.50;56.37;97195.84;5027787;27;20192;-74
2022/08/20 00:36:22;;;;;;;0.80;0.73;;;;;;;23.49;56.15;97207.56;5010888;27;20195;-74
2022/08/20 00:38:47;;;;;;;1.33;0.80;;;;;;;23.45;56.15;97196.81;5018003;28;20587;-74
2022/08/20 00:41:20;;;;;;;1.20;0.88;;;;;;;23.30;56.94;97203.53;4990223;28;20201;-74
2022/08/20 00:44:10;;;;;;;1.70;0.80;;;;;;;23.22;56.46;97196.44;5007048;27;20650;-74
2022/08/20 00:46:37;;;;;;;0.98;0.93;;;;;;;23.29;56.52;97207.31;5010934;27;20180;-74
2022/08/20 00:49:07;;;;;;;1.00;1.00;;;;;;;23.33;56.07;97204.78;5034015;27;20733;-74
2022/08/20 00:51:47;;;;;;;0.75;0.75;;;;;;;23.21;56.38;97202.06;5007749;28;20667;-74
2022/08/20 00:54:14;;;;;;;1.08;0.98;;;;;;;23.27;56.35;97201.53;5007521;28;20268;-74
2022/08/20 00:56:41;;;;;;;1.00;0.90;;;;;;;23.22;56.67;97199.09;4990763;28;20215;-74
2022/08/20 00:59:10;;;;;;;0.88;0.88;;;;;;;23.11;56.94;97211.97;5017289;27;20260;-74
2022/08/20 01:01:38;;;;;;;1.42;1.00;;;;;;;23.02;57.00;97216.56;5027189;27;20154;-75
2022/08/20 01:04:04;;;;;;;1.10;0.88;;;;;;;23.02;57.50;97210.47;5025661;27;20197;-74
2022/08/20 01:06:30;;;;;;;1.20;1.10;;;;;;;23.00;57.51;97211.56;5027259;27;20216;-74
2022/08/20 01:08:55;;;;;;;1.05;0.95;;;;;;;22.96;58.00;97213.34;5012137;28;20257;-74
2022/08/20 01:11:28;;;;;;;1.00;0.90;;;;;;;22.91;58.06;97213.53;4973577;28;20197;-74
2022/08/20 01:13:56;;;;;;;1.58;1.10;;;;;;;22.85;58.08;97212.16;4991225;28;20189;-74
2022/08/20 01:16:25;;;;;;;0.95;0.70;;;;;;;22.79;58.53;97205.47;5007136;28;20608;-74
2022/08/20 01:18:51;;;;;;;1.40;1.30;;;;;;;22.81;58.05;97205.94;5006418;28;20217;-74
2022/08/20 01:21:27;;;;;;;1.25;1.15;;;;;;;22.76;58.52;97209.56;4973372;28;20171;-74
2022/08/20 01:23:56;;;;;;;0.90;0.90;;;;;;;22.76;58.46;97204.25;4991504;28;20180;-74
2022/08/20 01:26:30;;;;;;;2.88;1.00;;;;;;;22.61;59.00;97207.47;5006931;28;20193;-74
2022/08/20 01:29:03;;;;;;;0.90;0.90;;;;;;;22.62;58.79;97214.34;5018916;27;20177;-74
2022/08/20 01:31:32;;;;;;;1.08;1.08;;;;;;;22.58;58.86;97214.19;5010653;28;20732;-74
2022/08/20 01:34:00;;;;;;;1.33;1.23;;;;;;;22.58;58.89;97216.84;5025811;28;20205;-74
2022/08/20 01:36:31;;;;;;;0.93;0.93;;;;;;;22.57;58.61;97215.31;5009113;28;20192;-74
2022/08/20 01:39:01;;;;;;;1.10;1.10;;;;;;;22.49;58.71;97221.44;4999267;28;20389;-74
2022/08/20 01:41:29;;;;;;;1.20;1.10;;;;;;;22.49;59.24;97228.63;5007871;28;20576;-73
2022/08/20 01:43:56;;;;;;;1.20;1.10;;;;;;;22.54;59.10;97225.78;5031534;27;20237;-74
2022/08/20 01:46:41;;;;;;;1.20;1.10;;;;;;;22.35;59.61;97231.50;5006658;28;20336;-75
2022/08/20 01:49:19;;;;;;;1.42;1.00;;;;;;;22.41;59.88;97232.88;5005518;28;20276;-74
2022/08/20 01:51:44;;;;;;;1.40;1.30;;;;;;;22.49;59.75;97234.69;5006649;28;20148;-74
2022/08/20 01:54:11;;;;;;;1.42;1.33;;;;;;;22.45;59.67;97236.44;4990190;28;20657;-74
2022/08/20 01:57:13;;;;;;;1.77;1.30;;;;;;;22.30;60.21;97234.34;5025196;28;20221;-74
2022/08/20 01:59:39;;;;;;;1.30;1.20;;;;;;;22.42;60.49;97232.53;5011097;28;20380;-74
2022/08/20 02:02:05;;;;;;;1.60;1.10;;;;;;;22.46;59.81;97224.72;5011198;28;20246;-74
2022/08/20 02:04:32;;;;;;;1.10;1.00;;;;;;;22.50;59.94;97228.31;5007516;28;20213;-74
2022/08/20 02:07:00;;;;;;;1.80;1.33;;;;;;;22.51;59.81;97219.22;5009049;28;20281;-74
2022/08/20 02:09:31;;;;;;;2.65;1.27;;;;;;;22.57;59.98;97225.16;5027719;28;20204;-74
2022/08/20 02:11:58;;;;;;;1.48;1.38;;;;;;;22.62;59.90;97223.06;5008576;28;20342;-74
2022/08/20 02:14:24;;;;;;;1.65;1.55;;;;;;;22.59;60.10;97229.03;4995838;27;20325;-74
2022/08/20 02:16:49;;;;;;;1.63;1.40;;;;;;;22.65;60.21;97239.44;5012007;27;20193;-74
2022/08/20 02:19:26;;;;;;;1.48;1.30;;;;;;;22.53;60.39;97227.66;5030727;27;20255;-74
2022/08/20 02:21:55;;;;;;;1.48;1.20;;;;;;;22.61;60.04;97229.47;5009680;27;20213;-74
2022/08/20 02:24:21;;;;;;;1.95;1.20;;;;;;;22.69;60.15;97232.41;5054680;28;20058;-74
2022/08/20 02:26:47;;;;;;;1.42;1.20;;;;;;;22.70;60.01;97242.69;5082005;28;20039;-74
2022/08/20 02:29:15;;;;;;;2.03;1.30;;;;;;;22.66;60.33;97238.38;5063997;28;20043;-73
2022/08/20 02:31:43;;;;;;;1.60;1.40;;;;;;;22.66;60.60;97241.78;5090322;28;20023;-74
2022/08/20 02:34:09;;;;;;;2.00;1.55;;;;;;;22.70;60.10;97241.91;5049307;28;20027;-73
2022/08/20 02:36:37;;;;;;;1.40;1.25;;;;;;;22.73;59.51;97241.28;5016012;28;20351;-73
2022/08/20 02:39:08;;;;;;;1.70;1.60;;;;;;;22.60;59.66;97240.41;5010560;28;20359;-74
2022/08/20 02:41:35;;;;;;;1.38;1.27;;;;;;;22.74;59.40;97248.13;5025874;27;20318;-74
2022/08/20 02:44:01;;;;;;;1.30;1.20;;;;;;;22.79;59.64;97243.44;5044015;27;20373;-74
2022/08/20 02:46:27;;;;;;;2.00;1.77;;;;;;;22.81;59.51;97241.22;5079614;27;20031;-75
2022/08/20 02:48:56;;;;;;;2.30;1.42;;;;;;;22.71;59.78;97233.63;5081133;28;20035;-74
2022/08/20 02:51:22;;;;;;;1.70;1.60;;;;;;;22.82;59.85;97239.34;5081622;28;20111;-73
2022/08/20 02:53:48;;;;;;;1.73;1.63;;;;;;;22.83;59.63;97237.47;5079866;28;20570;-73
2022/08/20 02:56:13;;;;;;;2.22;1.60;;;;;;;22.85;59.30;97233.38;5025092;28;20361;-74
2022/08/20 02:58:39;;;;;;;1.70;1.35;;;;;;;22.86;59.12;97245.56;5025905;27;20365;-74
2022/08/20 03:01:11;;;;;;;1.55;1.45;;;;;;;22.85;59.37;97237.94;5026103;27;20441;-74
2022/08/20 03:03:41;;;;;;;3.00;1.63;;;;;;;22.89;58.74;97234.28;5022895;27;20042;-73
2022/08/20 03:06:08;;;;;;;2.10;1.63;;;;;;;22.86;59.72;97236.81;5084991;27;20030;-74
2022/08/20 03:08:34;;;;;;;2.63;1.70;;;;;;;22.89;58.83;97241.47;5080818;28;20038;-74
2022/08/20 03:11:00;;;;;;;1.90;1.80;;;;;;;22.83;59.37;97238.25;5080728;28;20031;-74
2022/08/20 03:13:26;;;;;;;2.20;1.60;;;;;;;22.88;59.25;97232.75;5119337;27;20471;-73
2022/08/20 03:15:54;;;;;;;3.42;1.70;;;;;;;22.81;59.46;97235.91;5053504;27;20304;-74
2022/08/20 03:18:22;;;;;;;1.70;1.50;;;;;;;22.85;59.67;97240.59;5027467;27;20307;-74
2022/08/20 03:20:48;;;;;;;2.03;1.80;;;;;;;22.87;59.69;97241.03;5028889;27;20220;-75
2022/08/20 03:23:15;;;;;;;1.90;1.70;;;;;;;22.83;59.45;97240.91;5013084;27;20192;-74
2022/08/20 03:25:41;;;;;;;1.90;1.80;;;;;;;22.85;59.53;97238.69;5078112;27;20027;-73
2022/08/20 03:28:07;;;;;;;2.53;1.73;;;;;;;22.84;59.71;97239.03;5099251;27;20574;-73
2022/08/20 03:30:34;;;;;;;1.75;1.60;;;;;;;22.79;59.92;97239.97;5082531;27;20035;-74
2022/08/20 03:32:59;;;;;;;2.15;1.88;;;;;;;22.76;59.73;97236.09;5084427;27;20102;-73
2022/08/20 03:35:27;;;;;;;1.85;1.75;;;;;;;22.74;60.15;97229.56;5029810;27;20253;-74
2022/08/20 03:37:54;;;;;;;1.83;1.73;;;;;;;22.77;60.18;97237.69;5011648;28;20193;-74
2022/08/20 03:40:27;;;;;;;2.08;1.88;;;;;;;22.63;60.39;97242.44;4992002;28;20310;-74
2022/08/20 03:42:53;;;;;;;4.68;2.10;;;;;;;22.74;60.44;97237.50;5027013;28;20096;-74
2022/08/20 03:45:20;;;;;;;2.00;1.80;;;;;;;22.72;60.15;97234.41;5012097;28;20355;-74
2022/08/20 03:47:46;;;;;;;1.88;1.70;;;;;;;22.61;60.45;97232.13;5040193;27;20122;-74
2022/08/20 03:50:12;;;;;;;2.13;1.80;;;;;;;22.60;60.53;97233.25;5064580;27;20034;-75
2022/08/20 03:52:38;;;;;;;2.47;2.05;;;;;;;22.68;60.17;97233.50;5049036;27;20701;-74
2022/08/20 03:55:05;;;;;;;2.55;2.20;;;;;;;22.60;60.47;97232.44;5070023;27;20204;-74
2022/08/20 03:57:31;;;;;;;2.38;2.17;;;;;;;22.63;60.55;97235.22;4981542;28;20819;-74
2022/08/20 03:59:56;;;;;;;2.13;1.92;;;;;;;22.66;60.18;97235.72;4991268;28;20201;-74
2022/08/20 04:02:22;;;;;;;2.25;2.05;;;;;;;22.68;60.19;97233.50;4975036;28;20767;-74
2022/08/20 04:04:47;;;;;;;3.25;2.28;;;;;;;22.66;60.22;97241.03;5029246;28;20372;-73
2022/08/20 04:07:24;;;;;;;2.42;2.13;;;;;;;22.60;60.30;97235.09;5046890;27;20185;-74
2022/08/20 04:09:54;;;;;;;2.72;2.35;;;;;;;22.57;60.35;97233.13;5053160;27;20038;-74
2022/08/20 04:12:21;;;;;;;3.95;1.83;;;;;;;22.68;60.27;97236.94;5067293;27;20706;-74
2022/08/20 04:14:47;;;;;;;2.85;2.30;;;;;;;22.63;60.07;97237.88;5051877;27;20286;-74
2022/08/20 04:17:13;;;;;;;3.03;2.00;;;;;;;22.59;60.54;97236.97;5016936;28;20644;-74
2022/08/20 04:19:39;;;;;;;2.22;1.98;;;;;;;22.56;60.73;97236.84;5007821;28;20196;-74
2022/08/20 04:22:05;;;;;;;2.85;1.90;;;;;;;22.46;60.99;97243.28;4991002;28;20069;-74
2022/08/20 04:24:31;;;;;;;2.55;2.35;;;;;;;22.47;60.65;97244.09;4974726;28;20375;-74
2022/08/20 04:26:57;;;;;;;2.35;2.15;;;;;;;22.38;60.96;97250.22;5007816;28;20185;-74
2022/08/20 04:29:24;;;;;;;2.88;2.20;;;;;;;22.38;61.30;97252.88;4992993;27;20293;-74
2022/08/20 04:31:51;;;;;;;2.45;2.15;;;;;;;22.35;61.22;97252.72;5028133;27;20641;-74
2022/08/20 04:34:17;;;;;;;2.67;2.08;;;;;;;22.33;61.29;97258.34;5010876;27;20293;-74
2022/08/20 04:36:45;;;;;;;2.83;2.03;;;;;;;22.32;61.62;97263.97;5005302;28;20221;-74
2022/08/20 04:39:11;;;;;;;2.40;2.20;;;;;;;22.32;61.84;97263.97;4990809;28;20238;-74
2022/08/20 04:41:36;;;;;;;2.47;2.28;;;;;;;22.29;61.61;97264.59;4991093;28;20704;-75
2022/08/20 04:44:02;;;;;;;2.35;2.17;;;;;;;22.32;61.70;97266.63;4974120;27;20229;-74
2022/08/20 04:46:27;;;;;;;2.30;2.00;;;;;;;22.28;61.67;97263.84;5008279;27;20331;-75
2022/08/20 04:48:53;;;;;;;3.78;2.38;;;;;;;22.29;61.96;97261.94;5026783;27;20698;-74
2022/08/20 04:51:19;;;;;;;3.08;2.40;;;;;;;22.29;61.68;97264.59;5008100;27;20150;-74
2022/08/20 04:53:45;;;;;;;2.35;1.98;;;;;;;22.37;61.64;97261.13;5010909;27;20189;-74
2022/08/20 04:56:11;;;;;;;3.45;2.30;;;;;;;22.33;61.72;97262.84;5027552;27;20242;-74
2022/08/20 04:58:38;;;;;;;2.78;2.17;;;;;;;22.34;61.75;97267.06;5009504;27;20254;-74
2022/08/20 05:01:09;;;;;;;2.30;1.70;;;;;;;22.33;61.61;97274.28;5017013;28;20276;-75
2022/08/20 05:03:36;;;;;;;2.47;2.28;;;;;;;22.46;61.27;97269.06;5006155;28;20355;-74
2022/08/20 05:06:04;;;;;;;2.42;2.22;;;;;;;22.49;61.10;97263.88;5006430;28;20628;-75
2022/08/20 05:08:30;;;;;;;2.10;1.90;;;;;;;22.49;61.43;97263.88;5005610;28;20420;-75
2022/08/20 05:11:08;;;;;;;2.92;1.90;;;;;;;22.52;61.04;97268.56;5000804;27;20154;-74
2022/08/20 05:13:34;;;;;;;2.10;1.90;;;;;;;22.57;60.86;97255.09;5026251;27;20220;-75
2022/08/20 05:16:01;;;;;;;2.38;2.17;;;;;;;22.58;60.93;97264.59;4982394;28;20670;-74
2022/08/20 05:18:27;;;;;;;2.00;1.80;;;;;;;22.61;60.69;97268.50;4988659;28;20229;-74
2022/08/20 05:20:53;;;;;;;1.92;1.77;;;;;;;22.57;61.16;97268.38;5010679;28;20204;-74
2022/08/20 05:23:19;;;;;;;2.00;1.80;;;;;;;22.62;61.05;97273.50;5009740;27;20170;-74
2022/08/20 05:25:48;;;;;;;2.45;1.90;;;;;;;22.61;61.16;97279.13;5009398;27;20200;-75
2022/08/20 05:28:25;;;;;;;2.33;1.80;;;;;;;22.57;60.71;97276.34;5038522;27;20675;-74
2022/08/20 05:30:51;;;;;;;2.17;1.55;;;;;;;22.66;60.57;97280.84;4991997;28;20553;-74
2022/08/20 05:33:21;;;;;;;2.38;1.70;;;;;;;22.65;60.86;97290.66;5045076;27;20609;-75
2022/08/20 05:35:48;;;;;;;2.63;2.10;;;;;;;22.62;61.01;97286.78;5009230;28;20264;-74
2022/08/20 05:38:17;;;;;;;2.60;2.15;;;;;;;22.64;61.02;97294.41;5039013;27;20912;-76
2022/08/20 05:40:43;;;;;;;2.15;1.73;;;;;;;22.70;61.09;97298.44;4991579;28;20250;-77
2022/08/20 05:43:08;;;;;;;2.20;2.00;;;;;;;22.67;61.53;97301.75;5007244;28;20353;-74
2022/08/20 05:45:38;;;;;;;2.00;1.80;;;;;;;22.66;61.68;97308.16;5018147;28;20212;-74
2022/08/20 05:48:06;;;;;;;2.10;1.88;;;;;;;22.59;62.27;97298.03;5008333;28;20198;-74
2022/08/20 05:50:32;;;;;;;2.40;1.92;;;;;;;22.60;62.15;97302.25;5013988;27;20171;-75
2022/08/20 05:52:58;;;;;;;1.95;1.85;;;;;;;22.54;62.54;97302.75;5009903;28;20198;-75
2022/08/20 05:55:24;;;;;;;2.88;2.17;;;;;;;22.54;62.43;97302.75;5028504;27;20322;-74
2022/08/20 05:57:55;;;;;;;2.85;1.90;;;;;;;22.53;62.96;97306.47;5028685;28;20197;-74
2022/08/20 06:00:20;;;;;;;2.58;2.38;;;;;;;22.49;63.24;97302.91;5031375;27;20276;-74
2022/08/20 06:05:30;;;;;;;2.17;1.98;;;;;;;22.49;63.72;97311.66;5028845;28;20213;-75
2022/08/20 06:07:55;;;;;;;2.92;2.63;;;;;;;22.52;63.81;97316.31;4977106;27;20625;-75
2022/08/20 06:10:21;;;;;;;1.88;1.65;;;;;;;22.49;63.26;97316.97;4993304;28;20181;-74
2022/08/20 06:12:46;;;;;;;2.42;2.22;;;;;;;22.46;63.93;97312.28;5028985;28;20349;-74
2022/08/20 06:15:12;;;;;;;2.58;2.38;;;;;;;22.45;63.91;97321.34;5010667;28;20162;-74
2022/08/20 06:17:38;;;;;;;2.47;2.28;;;;;;;22.46;63.98;97314.16;5010554;27;20192;-73
2022/08/20 06:20:06;;;;;;;2.95;2.30;;;;;;;22.33;64.70;97318.56;5009852;28;20166;-74
2022/08/20 06:22:32;;;;;;;2.85;2.38;;;;;;;22.31;65.16;97316.25;5010240;28;20655;-74
2022/08/20 06:24:57;;;;;;;2.28;2.00;;;;;;;22.37;64.85;97319.50;4993483;28;20390;-74
2022/08/20 06:27:23;;;;;;;3.22;1.98;;;;;;;22.46;64.60;97322.13;4992758;27;20218;-74
2022/08/20 06:29:49;;;;;;;2.25;2.05;;;;;;;22.47;64.42;97324.47;5030032;27;20170;-74
2022/08/20 06:32:15;;;;;;;1.85;1.67;;;;;;;22.45;64.78;97321.34;5030152;27;20642;-74
2022/08/20 06:34:40;;;;;;;2.97;2.13;;;;;;;22.48;64.75;97323.34;5030421;27;20598;-74
2022/08/20 06:37:22;;;;;;;1.92;1.70;;;;;;;22.38;65.33;97329.00;5048756;27;20192;-73
2022/08/20 06:39:49;;;;;;;4.22;2.53;;;;;;;22.49;64.79;97327.56;5009197;28;20660;-74
2022/08/20 06:42:15;;;;;;;2.40;2.15;;;;;;;22.52;64.79;97334.13;5009424;27;20183;-74
2022/08/20 06:44:41;;;;;;;2.50;1.98;;;;;;;22.54;64.48;97330.03;4997433;28;20276;-74
2022/08/20 06:47:06;;;;;;;2.10;1.90;;;;;;;22.52;64.83;97326.16;5028339;27;20192;-74
2022/08/20 06:49:35;;;;;;;2.15;2.00;;;;;;;22.48;64.57;97336.63;5027179;27;20718;-74
2022/08/20 06:52:04;;;;;;;2.45;1.80;;;;;;;22.47;64.77;97329.78;5009573;28;20287;-74
2022/08/20 06:54:30;;;;;;;1.60;1.50;;;;;;;22.53;65.02;97338.31;5038833;27;20281;-74
2022/08/20 06:56:56;;;;;;;1.95;1.75;;;;;;;22.46;65.22;97338.03;5046672;27;20420;-74
2022/08/20 06:59:21;;;;;;;1.33;1.15;;;;;;;22.56;64.89;97341.13;5045487;27;20183;-73
2022/08/20 07:01:48;;;;;;;2.53;1.67;;;;;;;22.61;64.60;97332.97;5029466;27;20120;-74
2022/08/20 07:04:14;;;;;;;1.80;1.35;;;;;;;22.69;64.25;97335.91;5029843;27;20266;-73
2022/08/20 07:06:40;;;;;;;2.35;1.50;;;;;;;22.76;64.57;97333.56;5030170;27;20326;-74
2022/08/20 07:09:06;;;;;;;2.00;1.65;;;;;;;22.82;64.17;97334.91;5006680;28;20247;-74
2022/08/20 07:11:33;;;;;;;2.17;1.70;;;;;;;22.86;64.45;97332.41;4991557;28;20347;-73
2022/08/20 07:14:00;;;;;;;1.60;1.50;;;;;;;22.98;63.79;97338.59;5009512;28;20201;-74
2022/08/20 07:16:26;;;;;;;3.22;1.50;;;;;;;23.16;63.58;97336.63;5009261;28;20197;-74
2022/08/20 07:18:51;;;;;;;6.97;1.98;;;;;;;23.20;63.49;97339.41;5019578;27;20202;-74
2022/08/20 07:21:17;;;;;;;1.45;1.27;;;;;;;23.33;63.01;97341.03;5032246;27;20240;-74
2022/08/20 07:23:42;;;;;;;1.30;1.20;;;;;;;23.42;63.22;97340.19;5029101;27;20264;-75
2022/08/20 07:26:07;;;;;;;1.80;1.30;;;;;;;23.51;62.65;97343.56;5034931;27;20201;-74
2022/08/20 07:28:33;;;;;;;2.22;1.30;;;;;;;23.59;62.18;97340.06;5008437;28;20220;-74
2022/08/20 07:33:43;;;;;;;1.27;1.17;;;;;;;23.80;61.49;97344.59;5024445;27;20690;-75
2022/08/20 07:36:09;;;;;;;2.67;1.20;;;;;;;23.83;60.98;97344.72;5045864;27;20215;-74
2022/08/20 07:38:35;;;;;;;0.73;0.73;;;;;;;23.87;60.51;97343.00;5009934;28;20201;-74
2022/08/20 07:41:04;;;;;;;0.80;0.80;;;;;;;23.85;60.76;97331.13;5018492;27;20193;-74
2022/08/20 07:43:30;;;;;;;1.88;0.88;;;;;;;23.91;60.96;97345.78;5012110;27;20271;-74
2022/08/20 07:45:59;;;;;;;1.20;1.10;;;;;;;23.85;60.57;97352.38;5013193;27;20705;-74
2022/08/20 07:48:27;;;;;;;0.90;0.90;;;;;;;23.79;60.42;97357.09;5024022;27;20186;-73
2022/08/20 07:50:57;;;;;;;1.42;0.90;;;;;;;23.69;59.95;97354.84;4981316;28;20341;-74
2022/08/20 07:53:24;;;;;;;1.10;0.70;;;;;;;23.64;59.97;97358.47;5034454;27;20154;-74
2022/08/20 07:55:49;;;;;;;1.30;0.82;;;;;;;23.68;59.55;97362.06;5010685;27;20238;-74
2022/08/20 07:58:18;;;;;;;0.70;0.70;;;;;;;23.64;59.26;97363.03;5016691;27;20270;-74
2022/08/20 08:00:43;;;;;;;0.60;0.50;;;;;;;23.69;59.59;97358.28;5033585;27;20249;-73
2022/08/20 08:03:09;;;;;;;1.67;0.73;;;;;;;23.71;59.17;97363.28;5032446;27;20215;-74
2022/08/20 08:05:37;;;;;;;0.73;0.70;;;;;;;23.71;59.19;97361.38;5021897;27;20253;-75
2022/08/20 08:08:05;;;;;;;1.25;0.60;;;;;;;23.79;59.18;97365.09;5027745;27;20207;-75
2022/08/20 08:10:30;;;;;;;0.93;0.75;;;;;;;23.86;59.56;97368.00;5026580;27;20235;-75
2022/08/20 08:12:58;;;;;;;1.35;0.70;;;;;;;23.92;59.68;97365.94;5032402;27;20027;-76
2022/08/20 08:15:29;;;;;;;0.90;0.60;;;;;;;24.05;59.29;97358.78;5014881;28;20043;-76
2022/08/20 08:17:59;;;;;;;1.23;1.23;;;;;;;24.17;58.28;97366.78;5038849;27;20341;-76
2022/08/20 08:20:24;;;;;;;0.70;0.63;;;;;;;24.31;57.51;97363.81;5012024;27;20665;-76
2022/08/20 08:22:50;;;;;;;0.68;0.52;;;;;;;24.30;57.87;97359.63;5006906;28;20193;-74
2022/08/20 08:25:16;;;;;;;1.40;0.47;;;;;;;24.43;57.19;97369.16;4994570;27;20205;-76
2022/08/20 08:27:42;;;;;;;0.50;0.50;;;;;;;24.49;57.49;97365.19;5002924;28;20185;-76
2022/08/20 08:30:09;;;;;;;0.85;0.73;;;;;;;24.55;56.85;97365.78;4991340;28;20243;-77
2022/08/20 08:33:26;;;;;;;1.02;0.60;;;;;;;24.65;56.75;97361.91;5008620;28;20404;-76
2022/08/20 08:35:27;;;;;;;0.60;0.50;;;;;;;24.79;57.12;97365.00;5011402;28;20738;-76
2022/08/20 08:37:53;;;;;;;0.75;0.65;;;;;;;24.69;55.79;97360.13;4975163;28;20336;-76
2022/08/20 08:40:20;;;;;;;0.38;0.38;;;;;;;24.88;53.99;97364.91;4974492;28;20162;-76
2022/08/20 08:42:56;;;;;;;0.60;0.60;;;;;;;25.06;53.48;97362.81;4991295;28;20752;-76
2022/08/20 08:45:25;;;;;;;0.60;0.60;;;;;;;25.08;52.19;97362.47;5009023;28;20357;-75
2022/08/20 08:47:50;;;;;;;2.70;1.30;;;;;;;24.99;52.44;97360.69;5007555;28;20563;-74
2022/08/20 08:50:23;;;;;;;0.70;0.70;;;;;;;24.94;53.24;97373.47;4990844;28;20228;-75
2022/08/20 08:52:52;;;;;;;1.35;0.63;;;;;;;25.03;53.02;97368.78;5007753;28;20230;-74
2022/08/20 08:55:19;;;;;;;0.50;0.50;;;;;;;24.95;51.05;97372.34;4991005;28;20274;-74
2022/08/20 08:57:48;;;;;;;0.52;0.52;;;;;;;24.93;52.01;97377.22;4990861;28;20189;-74
2022/08/20 09:00:17;;;;;;;1.15;0.77;;;;;;;24.96;51.16;97376.56;4990760;28;20218;-74
2022/08/20 09:02:59;;;;;;;0.77;0.50;;;;;;;25.00;52.67;97380.13;4974142;28;20696;-74
2022/08/20 09:05:30;;;;;;;0.82;0.70;;;;;;;25.00;51.92;97377.44;4990735;28;20277;-74
2022/08/20 09:07:56;;;;;;;0.50;0.50;;;;;;;25.32;51.28;97380.34;5007353;28;20202;-75
2022/08/20 09:10:21;;;;;;;0.65;0.60;;;;;;;25.50;49.71;97384.31;5025333;28;20166;-74
2022/08/20 09:12:47;;;;;;;0.65;0.65;;;;;;;25.69;49.23;97372.25;4990741;28;20630;-74
2022/08/20 09:15:12;;;;;;;1.48;0.75;;;;;;;25.97;47.68;97369.63;4990657;28;20166;-74
2022/08/20 09:17:38;;;;;;;0.80;0.70;;;;;;;26.14;47.93;97368.53;4990933;28;20193;-74
2022/08/20 09:20:04;;;;;;;0.70;0.60;;;;;;;26.38;46.55;97359.59;4990153;28;20199;-74
2022/08/20 09:22:32;;;;;;;1.33;0.60;;;;;;;26.63;46.00;97362.91;4990454;28;20272;-74
2022/08/20 09:24:58;;;;;;;1.60;0.80;;;;;;;26.86;45.43;97364.97;4990877;28;20209;-74
2022/08/20 09:27:23;;;;;;;0.65;0.65;;;;;;;26.86;45.17;97362.28;4990848;28;20031;-75
2022/08/20 09:29:49;;;;;;;0.70;0.70;;;;;;;26.79;45.32;97368.25;4990021;28;20185;-75
2022/08/20 09:32:22;;;;;;;1.80;1.00;;;;;;;26.51;46.35;97360.28;5007170;28;20282;-74
2022/08/20 09:34:58;;;;;;;0.80;0.77;;;;;;;26.43;46.32;97359.34;5007187;28;20190;-76
2022/08/20 09:37:27;;;;;;;1.02;0.80;;;;;;;26.22;46.54;97356.94;5008702;28;20280;-76
2022/08/20 09:39:53;;;;;;;1.45;1.08;;;;;;;26.24;46.66;97357.34;4973793;28;20647;-76
2022/08/20 09:42:22;;;;;;;0.82;0.80;;;;;;;26.10;47.86;97365.00;5007098;28;20154;-74
2022/08/20 09:44:48;;;;;;;1.10;0.80;;;;;;;26.24;47.73;97356.59;4989807;28;20635;-74
2022/08/20 09:47:14;;;;;;;1.20;1.08;;;;;;;26.33;47.16;97355.28;4989852;28;20193;-74
2022/08/20 09:49:42;;;;;;;1.92;1.02;;;;;;;26.43;47.28;97347.91;5006036;28;20713;-74
2022/08/20 09:52:10;;;;;;;1.98;1.10;;;;;;;26.89;46.74;97337.56;4990282;28;20061;-75
2022/08/20 09:54:38;;;;;;;1.10;1.00;;;;;;;27.33;46.03;97334.69;5006818;28;20202;-75
2022/08/20 09:57:06;;;;;;;1.33;1.13;;;;;;;27.46;43.38;97335.34;5006938;28;20292;-75
2022/08/20 09:59:32;;;;;;;0.77;0.77;;;;;;;27.54;42.82;97331.69;4989735;28;20284;-74
2022/08/20 10:01:58;;;;;;;0.85;0.85;;;;;;;27.41;42.93;97333.72;5025311;28;20133;-74
2022/08/20 10:04:23;;;;;;;0.82;0.70;;;;;;;27.71;42.02;97327.81;5006801;28;20296;-75
2022/08/20 10:06:48;;;;;;;1.88;0.80;;;;;;;27.94;43.00;97319.84;4990231;28;20432;-74
2022/08/20 10:09:14;;;;;;;1.60;0.93;;;;;;;28.46;41.44;97331.03;5006575;28;20361;-74
2022/08/20 10:11:40;;;;;;;1.55;0.90;;;;;;;28.58;39.62;97324.75;4973965;28;20099;-75
2022/08/20 10:14:07;;;;;;;0.80;0.80;;;;;;;28.63;39.84;97331.72;5006707;28;20282;-74
2022/08/20 10:16:33;;;;;;;1.27;0.70;;;;;;;28.80;39.65;97323.16;5006894;28;20193;-74
2022/08/20 10:18:59;;;;;;;0.95;0.75;;;;;;;28.70;40.38;97329.16;4989654;28;20197;-74
2022/08/20 10:21:24;;;;;;;0.65;0.65;;;;;;;28.69;38.98;97322.25;4989645;28;20635;-74
2022/08/20 10:23:50;;;;;;;1.00;0.77;;;;;;;28.92;38.40;97319.50;4989820;28;20167;-75
2022/08/20 10:26:16;;;;;;;0.98;0.60;;;;;;;28.72;38.80;97314.25;4989623;28;20275;-75
2022/08/20 10:28:41;;;;;;;0.60;0.52;;;;;;;28.74;35.40;97316.59;5005858;28;20289;-74
2022/08/20 10:31:08;;;;;;;0.68;0.68;;;;;;;28.89;35.47;97318.34;4989916;28;20289;-75
2022/08/20 10:33:34;;;;;;;0.95;0.60;;;;;;;28.83;34.31;97322.44;4989829;28;20265;-75
2022/08/20 10:36:12;;;;;;;0.70;0.70;;;;;;;28.74;34.89;97325.41;4976020;28;20612;-74
2022/08/20 10:38:37;;;;;;;1.58;0.60;;;;;;;29.06;34.72;97316.25;4993110;28;20291;-74
2022/08/20 10:41:03;;;;;;;0.40;0.40;;;;;;;29.20;34.18;97316.47;5026712;28;20592;-74
2022/08/20 10:43:29;;;;;;;7.43;0.98;;;;;;;29.23;34.78;97313.06;4993110;28;20718;-74
2022/08/20 10:45:54;;;;;;;0.50;0.50;;;;;;;29.34;34.34;97310.53;5007677;28;20253;-74
2022/08/20 10:48:20;;;;;;;1.00;0.65;;;;;;;29.22;32.05;97308.84;4992627;28;20341;-75
2022/08/20 10:50:45;;;;;;;1.02;1.02;;;;;;;29.35;32.93;97317.41;4993012;28;20189;-74
2022/08/20 10:53:11;;;;;;;0.70;0.68;;;;;;;29.70;32.15;97317.06;4993321;28;20194;-75
2022/08/20 10:55:37;;;;;;;1.52;0.77;;;;;;;29.82;31.43;97310.69;5009735;28;20163;-75
2022/08/20 10:58:05;;;;;;;8.50;1.77;;;;;;;29.97;32.21;97319.66;4976547;28;20189;-75
2022/08/20 11:00:31;;;;;;;1.20;0.80;;;;;;;30.09;32.71;97304.41;4992747;28;20197;-75
2022/08/20 11:02:57;;;;;;;1.08;0.98;;;;;;;30.05;31.79;97312.44;4976186;28;20254;-74
2022/08/20 11:05:22;;;;;;;1.23;1.02;;;;;;;30.04;31.83;97314.34;4976479;28;20648;-74
2022/08/20 11:07:48;;;;;;;0.93;0.80;;;;;;;30.39;31.00;97302.41;5009492;28;20198;-75
2022/08/20 11:10:13;;;;;;;1.38;0.98;;;;;;;30.41;29.79;97308.16;4992579;28;20204;-74
2022/08/20 11:12:38;;;;;;;1.30;1.10;;;;;;;30.18;31.13;97313.72;4976178;28;20696;-74
2022/08/20 11:15:04;;;;;;;1.15;1.00;;;;;;;30.40;30.28;97303.94;5009345;28;20607;-75
2022/08/20 11:17:33;;;;;;;1.25;0.90;;;;;;;30.12;28.16;97317.88;4992800;28;20251;-74
2022/08/20 11:19:59;;;;;;;1.10;0.93;;;;;;;30.20;28.56;97316.03;4975618;28;20631;-73
2022/08/20 11:22:25;;;;;;;0.80;0.80;;;;;;;30.16;28.13;97310.63;4976064;28;20630;-74
2022/08/20 11:24:51;;;;;;;1.17;1.08;;;;;;;30.21;28.42;97309.50;4992348;28;20324;-73
2022/08/20 11:27:22;;;;;;;1.25;1.15;;;;;;;30.17;28.12;97309.47;4992510;28;20695;-75
2022/08/20 11:29:48;;;;;;;0.90;0.90;;;;;;;30.61;25.91;97307.94;4991821;28;20615;-74
2022/08/20 11:32:13;;;;;;;1.40;1.02;;;;;;;30.62;25.28;97312.16;4975844;28;20181;-75
2022/08/20 11:34:39;;;;;;;1.20;1.10;;;;;;;30.35;24.25;97312.34;4976117;28;20815;-75
2022/08/20 11:37:04;;;;;;;1.20;0.95;;;;;;;30.02;25.44;97313.16;4975464;28;20809;-75
2022/08/20 11:39:29;;;;;;;1.00;0.80;;;;;;;29.66;26.01;97294.00;4991944;28;20253;-74
2022/08/20 11:41:55;;;;;;;1.17;0.95;;;;;;;29.61;27.01;97302.38;5008257;28;20359;-74